Tokyo, Japan
Current Conditions -  °F | °C
As of 11:00 AM on Sunday 23 Nov 2014 (Local Time) from RJTT Reporting Station
Few Clouds Few Clouds  
Wind Chill: 16°   Ceiling: Unl
Heat Index: 16°   Visibility: 6mi
Dew Point:   Wind: 7mph
Humidity: 48%   Direction: 350°N
Pressure: 30.15"   Gusts: NA
Location:  35.67°N, 139.77°E
Report Text: RJTT 230200Z 35006KT 9999 FEW030 16/05 Q1021 NOSIG
Loading
Personal Weather Stations






























Interactive Weather Map New forecast layout! Learn more

10-Day Weather Forecast

Advertisements
Track Severe Weather on mobile